createdAt,value
2023-05-15T00:01:20.807Z,5.85
2023-05-15T00:04:09.272Z,5.70
2023-05-15T00:06:56.142Z,5.80
2023-05-15T00:09:43.582Z,5.68
2023-05-15T00:12:30.735Z,6.10
2023-05-15T00:15:17.835Z,5.68
2023-05-15T00:18:04.911Z,5.72
2023-05-15T00:20:54.166Z,6.40
2023-05-15T00:23:41.009Z,6.13
2023-05-15T00:26:28.340Z,6.45
2023-05-15T00:29:15.653Z,6.80
2023-05-15T00:32:02.894Z,6.32
2023-05-15T00:34:49.656Z,6.90
2023-05-15T00:37:38.138Z,6.40
2023-05-15T00:40:27.151Z,6.30
2023-05-15T00:43:14.360Z,6.65
2023-05-15T00:46:02.427Z,7.10
2023-05-15T00:48:51.403Z,7.00
2023-05-15T00:51:38.746Z,7.25
2023-05-15T00:54:27.859Z,7.55
2023-05-15T00:57:16.020Z,7.65
2023-05-15T01:00:10.601Z,7.93
2023-05-15T01:02:57.844Z,8.00
2023-05-15T01:05:46.286Z,8.50
2023-05-15T01:08:44.223Z,8.13
2023-05-15T01:11:37.038Z,10.75
2023-05-15T01:14:24.615Z,10.37
2023-05-15T01:17:12.163Z,10.23
2023-05-15T01:20:01.146Z,10.65
2023-05-15T01:23:00.654Z,10.75
2023-05-15T01:26:24.327Z,11.65
2023-05-15T01:29:21.537Z,11.57
2023-05-15T01:32:13.322Z,10.50
2023-05-15T01:35:10.438Z,10.82
2023-05-15T01:38:05.985Z,10.20
2023-05-15T01:41:01.314Z,11.40
2023-05-15T01:43:55.746Z,11.35
2023-05-15T01:46:46.912Z,11.50
2023-05-15T01:49:34.841Z,9.95
2023-05-15T01:52:34.108Z,11.40
2023-05-15T01:55:24.254Z,11.63
2023-05-15T01:58:12.662Z,11.60
2023-05-15T02:01:01.282Z,11.63
2023-05-15T02:03:51.233Z,11.25
2023-05-15T02:06:42.032Z,12.65
2023-05-15T02:09:30.065Z,12.77
2023-05-15T02:12:17.526Z,13.00
2023-05-15T02:15:05.605Z,12.68
2023-05-15T02:17:52.737Z,12.52
2023-05-15T02:20:41.505Z,12.98
2023-05-15T02:23:29.839Z,14.00
2023-05-15T02:26:31.000Z,13.63
2023-05-15T02:29:21.862Z,14.90
2023-05-15T02:32:24.247Z,14.75
2023-05-15T02:35:19.567Z,14.55
2023-05-15T02:38:12.629Z,14.43
2023-05-15T02:41:01.969Z,14.68
2023-05-15T02:43:51.608Z,14.15
2023-05-15T02:46:40.153Z,13.82
2023-05-15T02:49:27.401Z,13.23
2023-05-15T02:52:14.379Z,13.43
2023-05-15T02:55:03.299Z,13.07
2023-05-15T02:57:50.263Z,11.90
2023-05-15T03:00:37.576Z,12.98
2023-05-15T03:03:25.297Z,12.20
2023-05-15T03:06:12.634Z,11.60
2023-05-15T03:08:59.525Z,11.82
2023-05-15T03:11:47.794Z,11.75
2023-05-15T03:14:35.019Z,11.35
2023-05-15T03:17:22.732Z,11.63
2023-05-15T03:20:11.567Z,11.43
2023-05-15T03:22:58.764Z,11.93
2023-05-15T03:25:46.246Z,11.27
2023-05-15T03:28:35.127Z,11.75
2023-05-15T03:31:22.123Z,12.52
2023-05-15T03:34:09.346Z,11.32
2023-05-15T03:36:56.732Z,10.65
2023-05-15T03:39:43.701Z,11.35
2023-05-15T03:42:31.873Z,10.35
2023-05-15T03:45:20.617Z,11.70
2023-05-15T03:48:09.212Z,11.30
2023-05-15T03:50:56.293Z,11.18
2023-05-15T03:53:43.390Z,11.13
2023-05-15T03:56:30.590Z,11.65
2023-05-15T03:59:17.651Z,12.00
2023-05-15T04:02:06.427Z,12.00
2023-05-15T04:04:53.607Z,12.07
2023-05-15T04:07:40.829Z,11.80
2023-05-15T04:10:28.116Z,11.95
2023-05-15T04:13:15.451Z,12.43
2023-05-15T04:16:02.593Z,12.25
2023-05-15T04:18:51.110Z,23.40
2023-05-15T04:21:38.377Z,19.15
2023-05-15T04:24:25.354Z,14.05
2023-05-15T04:27:12.374Z,13.27
2023-05-15T04:29:59.457Z,13.73
2023-05-15T04:32:46.825Z,13.30
2023-05-15T04:35:35.455Z,13.32
2023-05-15T04:38:22.503Z,11.95
2023-05-15T04:41:09.943Z,12.90
2023-05-15T04:43:57.335Z,12.65
2023-05-15T04:46:44.707Z,12.45
2023-05-15T04:49:32.033Z,13.02
2023-05-15T04:52:20.555Z,12.32
2023-05-15T04:55:08.744Z,13.13
2023-05-15T04:57:56.520Z,13.43
2023-05-15T05:00:43.813Z,12.52
2023-05-15T05:03:31.407Z,12.30
2023-05-15T05:06:19.035Z,13.20
2023-05-15T05:09:07.520Z,12.50
2023-05-15T05:11:54.596Z,12.88
2023-05-15T05:14:42.555Z,12.55
2023-05-15T05:17:31.854Z,12.48
2023-05-15T05:20:19.243Z,12.52
2023-05-15T05:23:06.498Z,12.45
2023-05-15T05:25:55.185Z,12.13
2023-05-15T05:28:42.206Z,11.75
2023-05-15T05:31:29.228Z,12.40
2023-05-15T05:34:16.176Z,12.27
2023-05-15T05:37:03.665Z,12.18
2023-05-15T05:39:50.909Z,12.68
2023-05-15T05:42:39.690Z,12.00
2023-05-15T05:45:27.234Z,12.38
2023-05-15T05:48:14.980Z,12.05
2023-05-15T05:51:02.190Z,11.90
2023-05-15T05:53:49.610Z,12.18
2023-05-15T05:56:36.650Z,11.88
2023-05-15T05:59:25.116Z,11.60
2023-05-15T06:02:13.078Z,11.63
2023-05-15T06:05:00.328Z,12.20
2023-05-15T06:07:48.023Z,11.00
2023-05-15T06:10:35.880Z,11.15
2023-05-15T06:13:23.190Z,10.85
2023-05-15T06:16:12.015Z,11.68
2023-05-15T06:18:59.252Z,12.32
2023-05-15T06:21:46.598Z,11.32
2023-05-15T06:24:33.963Z,11.48
2023-05-15T06:27:21.172Z,10.80
2023-05-15T06:30:09.600Z,11.52
2023-05-15T06:32:58.511Z,11.20
2023-05-15T06:35:45.597Z,10.90
2023-05-15T06:38:33.052Z,11.23
2023-05-15T06:41:21.626Z,10.73
2023-05-15T06:44:09.118Z,10.52
2023-05-15T06:46:56.608Z,10.80
2023-05-15T06:49:45.249Z,10.40
2023-05-15T06:52:32.548Z,9.80
2023-05-15T06:55:19.735Z,9.90
2023-05-15T06:58:07.422Z,9.43
2023-05-15T07:00:56.245Z,10.25
2023-05-15T07:03:44.363Z,9.80
2023-05-15T07:06:33.213Z,9.50
2023-05-15T07:09:20.311Z,9.23
2023-05-15T07:12:08.120Z,9.55
2023-05-15T07:14:55.794Z,8.93
2023-05-15T07:17:43.250Z,8.27
2023-05-15T07:20:32.752Z,8.18
2023-05-15T07:23:23.610Z,8.18
2023-05-15T07:26:16.801Z,7.68
2023-05-15T07:29:07.640Z,7.35
2023-05-15T07:31:54.872Z,7.05
2023-05-15T07:34:43.288Z,6.07
2023-05-15T07:37:30.406Z,5.50
2023-05-15T07:40:19.179Z,6.22
2023-05-15T07:43:06.454Z,5.97
2023-05-15T07:45:53.865Z,6.32
2023-05-15T07:48:40.850Z,5.28
2023-05-15T07:51:28.521Z,5.32
2023-05-15T07:54:16.251Z,5.32
2023-05-15T07:57:04.705Z,5.45
2023-05-15T07:59:51.731Z,4.82
2023-05-15T08:02:39.100Z,5.53
2023-05-15T08:05:26.653Z,5.53
2023-05-15T08:08:14.193Z,5.03
2023-05-15T08:11:01.380Z,5.88
2023-05-15T08:13:50.256Z,5.32
2023-05-15T08:16:37.440Z,4.88
2023-05-15T08:19:24.791Z,4.20
2023-05-15T08:22:12.033Z,4.78
2023-05-15T08:24:59.559Z,4.45
2023-05-15T08:27:46.869Z,4.60
2023-05-15T08:30:36.391Z,4.60
2023-05-15T08:33:23.645Z,4.80
2023-05-15T08:36:11.168Z,4.68
2023-05-15T08:38:58.511Z,4.40
2023-05-15T08:41:59.441Z,5.10
2023-05-15T08:44:46.630Z,5.00
2023-05-15T08:47:40.017Z,5.10
2023-05-15T08:50:27.879Z,4.90
2023-05-15T08:53:15.790Z,5.25
2023-05-15T08:56:03.749Z,4.93
2023-05-15T08:58:51.706Z,4.38
2023-05-15T09:01:39.842Z,4.45
2023-05-15T09:04:28.556Z,5.00
2023-05-15T09:07:17.314Z,5.10
2023-05-15T09:10:06.582Z,4.95
2023-05-15T09:12:54.784Z,4.32
2023-05-15T09:15:42.915Z,4.35
2023-05-15T09:18:30.234Z,4.38
2023-05-15T09:21:26.847Z,4.20
2023-05-15T09:24:18.997Z,4.43
2023-05-15T09:27:08.010Z,3.95
2023-05-15T09:29:56.642Z,3.47
2023-05-15T09:32:43.919Z,3.85
2023-05-15T09:35:35.268Z,3.65
2023-05-15T09:38:23.932Z,4.47
2023-05-15T09:41:11.905Z,3.70
2023-05-15T09:43:58.833Z,3.60
2023-05-15T09:46:46.363Z,3.90
2023-05-15T09:49:34.159Z,3.40
2023-05-15T09:52:23.531Z,3.78
2023-05-15T09:55:19.611Z,3.88
2023-05-15T09:58:08.846Z,3.72
2023-05-15T10:00:56.078Z,3.63
2023-05-15T10:03:43.828Z,3.10
2023-05-15T10:06:37.663Z,3.30
2023-05-15T10:09:31.231Z,3.60
2023-05-15T10:12:20.041Z,3.90
2023-05-15T10:15:08.677Z,3.83
2023-05-15T10:17:56.473Z,3.88
2023-05-15T10:20:43.615Z,3.72
2023-05-15T10:23:32.927Z,3.50
2023-05-15T10:26:26.161Z,3.80
2023-05-15T10:29:16.483Z,3.92
2023-05-15T10:32:04.717Z,4.22
2023-05-15T10:34:53.681Z,4.30
2023-05-15T10:37:41.424Z,4.90
2023-05-15T10:40:30.756Z,5.07
2023-05-15T10:43:19.649Z,4.25
2023-05-15T10:46:10.467Z,4.15
2023-05-15T10:48:58.729Z,4.10
2023-05-15T10:51:46.762Z,4.75
2023-05-15T10:54:34.801Z,4.88
2023-05-15T10:57:23.042Z,4.90
2023-05-15T11:00:27.710Z,5.13
2023-05-15T11:03:17.990Z,5.82
2023-05-15T11:06:09.981Z,5.95
2023-05-15T11:09:32.488Z,6.13
2023-05-15T11:12:20.066Z,6.45
2023-05-15T11:15:22.357Z,6.18
2023-05-15T11:18:09.933Z,5.75
2023-05-15T11:21:13.270Z,5.20
2023-05-15T11:24:06.347Z,5.78
2023-05-15T11:30:10.563Z,5.72
2023-05-15T11:33:01.498Z,5.93
2023-05-15T11:35:53.194Z,5.50
2023-05-15T11:38:41.918Z,6.10
2023-05-15T11:41:33.455Z,5.90
2023-05-15T11:44:23.235Z,5.35
2023-05-15T11:47:11.855Z,5.38
2023-05-15T11:49:59.141Z,5.28
2023-05-15T11:52:46.681Z,5.60
2023-05-15T11:55:37.092Z,6.28
2023-05-15T11:58:26.356Z,6.75
2023-05-15T12:01:13.423Z,5.85
2023-05-15T12:04:01.176Z,5.55
2023-05-15T12:06:49.780Z,5.25
2023-05-15T12:09:37.168Z,6.00
2023-05-15T12:12:28.671Z,5.70
2023-05-15T12:15:17.818Z,6.20
2023-05-15T12:18:05.354Z,6.03
2023-05-15T12:20:54.910Z,6.28
2023-05-15T12:23:42.097Z,4.55
2023-05-15T12:26:31.174Z,5.95
2023-05-15T12:29:19.903Z,6.70
2023-05-15T12:32:08.356Z,6.50
2023-05-15T12:34:55.839Z,6.10
2023-05-15T12:37:43.436Z,6.45
2023-05-15T12:40:30.466Z,5.82
2023-05-15T12:43:17.977Z,6.05
2023-05-15T12:46:06.738Z,5.85
2023-05-15T12:48:53.708Z,5.18
2023-05-15T12:51:44.330Z,5.55
2023-05-15T12:54:31.460Z,5.45
2023-05-15T12:57:19.040Z,5.57
2023-05-15T13:00:08.008Z,5.03
2023-05-15T13:02:58.911Z,5.70
2023-05-15T13:05:46.551Z,4.45
2023-05-15T13:08:33.633Z,5.35
2023-05-15T13:11:21.132Z,5.30
2023-05-15T13:14:17.351Z,4.47
2023-05-15T13:17:06.065Z,4.20
2023-05-15T13:19:54.403Z,5.10
2023-05-15T13:22:41.680Z,3.95
2023-05-15T13:25:30.681Z,3.50
2023-05-15T13:28:19.189Z,3.90
2023-05-15T13:31:06.567Z,3.70
2023-05-15T13:33:53.825Z,3.30
2023-05-15T13:36:41.967Z,3.80
2023-05-15T13:39:29.161Z,4.25
2023-05-15T13:42:16.186Z,4.22
2023-05-15T13:45:04.362Z,3.65
2023-05-15T13:47:52.361Z,4.45
2023-05-15T13:50:39.720Z,4.95
2023-05-15T13:53:28.085Z,4.63
2023-05-15T13:56:15.285Z,4.40
2023-05-15T13:59:03.010Z,4.35
2023-05-15T14:01:50.090Z,4.53
2023-05-15T14:04:37.560Z,4.80
2023-05-15T14:07:25.082Z,4.47
2023-05-15T14:10:13.822Z,4.82
2023-05-15T14:13:01.142Z,4.60
2023-05-15T14:15:48.274Z,3.55
2023-05-15T14:18:35.677Z,3.05
2023-05-15T14:21:23.751Z,2.53
2023-05-15T14:24:10.943Z,2.97
2023-05-15T14:26:59.220Z,3.05
2023-05-15T14:29:47.450Z,2.90
2023-05-15T14:32:34.921Z,2.80
2023-05-15T14:35:23.156Z,2.80
2023-05-15T14:38:10.463Z,2.58
2023-05-15T14:40:58.282Z,3.20
2023-05-15T14:43:47.684Z,3.80
2023-05-15T14:46:36.780Z,3.95
2023-05-15T14:49:23.965Z,3.10
2023-05-15T14:52:12.428Z,2.72
2023-05-15T14:55:09.376Z,3.00
2023-05-15T14:57:59.871Z,2.95
2023-05-15T15:00:49.306Z,2.80
2023-05-15T15:03:36.790Z,2.67
2023-05-15T15:06:24.241Z,2.85
2023-05-15T15:09:11.279Z,2.58
2023-05-15T15:11:58.753Z,3.05
2023-05-15T15:14:46.160Z,3.17
2023-05-15T15:17:34.962Z,3.30
2023-05-15T15:20:23.228Z,3.55
2023-05-15T15:23:11.170Z,3.67
2023-05-15T15:25:58.127Z,3.45
2023-05-15T15:28:45.244Z,4.07
2023-05-15T15:31:33.010Z,3.97
2023-05-15T15:34:22.152Z,3.63
2023-05-15T15:37:09.644Z,3.55
2023-05-15T15:39:57.161Z,3.47
2023-05-15T15:42:44.534Z,3.75
2023-05-15T15:45:31.971Z,3.80
2023-05-15T15:48:21.019Z,3.75
2023-05-15T15:51:10.248Z,3.38
2023-05-15T15:53:57.574Z,3.63
2023-05-15T15:56:44.850Z,3.50
2023-05-15T15:59:32.324Z,4.00
2023-05-15T16:02:21.159Z,3.92
2023-05-15T16:05:08.559Z,3.22
2023-05-15T16:07:57.579Z,2.78
2023-05-15T16:10:44.911Z,2.30
2023-05-15T16:13:32.257Z,2.25
2023-05-15T16:16:19.664Z,2.22
2023-05-15T16:19:07.383Z,2.10
2023-05-15T16:21:54.217Z,2.25
2023-05-15T16:24:42.724Z,2.03
2023-05-15T16:27:30.218Z,2.25
2023-05-15T16:30:17.487Z,2.22
2023-05-15T16:33:05.870Z,2.45
2023-05-15T16:35:53.810Z,2.33
2023-05-15T16:38:40.889Z,2.80
2023-05-15T16:41:29.821Z,2.53
2023-05-15T16:44:16.694Z,2.30
2023-05-15T16:47:04.557Z,2.40
2023-05-15T16:49:52.043Z,2.63
2023-05-15T16:52:45.812Z,2.35
2023-05-15T16:55:34.084Z,2.70
2023-05-15T16:58:23.316Z,2.55
2023-05-15T17:01:10.750Z,3.00
2023-05-15T17:03:58.081Z,2.92
2023-05-15T17:06:45.760Z,2.80
2023-05-15T17:09:35.655Z,3.30
2023-05-15T17:12:24.356Z,2.90
2023-05-15T17:15:14.768Z,3.00
2023-05-15T17:18:01.954Z,2.60
2023-05-15T17:20:49.137Z,2.70
2023-05-15T17:23:36.337Z,2.60
2023-05-15T17:26:23.894Z,3.20
2023-05-15T17:29:11.697Z,3.25
2023-05-15T17:32:00.271Z,3.38
2023-05-15T17:34:47.542Z,3.03
2023-05-15T17:37:34.850Z,3.10
2023-05-15T17:40:22.197Z,3.25
2023-05-15T17:43:10.385Z,2.97
2023-05-15T17:45:57.746Z,3.17
2023-05-15T17:48:46.680Z,3.38
2023-05-15T17:51:33.861Z,3.03
2023-05-15T17:54:21.275Z,3.30
2023-05-15T17:57:08.242Z,2.90
2023-05-15T17:59:55.194Z,3.35
2023-05-15T18:02:42.107Z,3.72
2023-05-15T18:05:30.854Z,3.70
2023-05-15T18:08:18.360Z,3.70
2023-05-15T18:11:17.668Z,3.72
2023-05-15T18:14:09.253Z,3.85
2023-05-15T18:16:57.610Z,4.32
2023-05-15T18:19:45.742Z,4.60
2023-05-15T18:22:33.916Z,4.20
2023-05-15T18:25:21.242Z,4.97
2023-05-15T18:28:08.269Z,4.88
2023-05-15T18:30:55.430Z,4.30
2023-05-15T18:33:43.593Z,4.88
2023-05-15T18:36:30.837Z,4.78
2023-05-15T18:39:19.869Z,4.88
2023-05-15T18:42:07.951Z,5.07
2023-05-15T18:44:55.108Z,4.82
2023-05-15T18:47:42.481Z,5.38
2023-05-15T18:50:32.000Z,5.40
2023-05-15T18:53:21.011Z,5.13
2023-05-15T18:56:09.777Z,4.88
2023-05-15T18:58:57.009Z,5.00
2023-05-15T19:01:45.228Z,5.38
2023-05-15T19:04:32.818Z,4.90
2023-05-15T19:07:20.344Z,4.65
2023-05-15T19:10:08.812Z,6.07
2023-05-15T19:12:57.383Z,4.93
2023-05-15T19:15:52.921Z,4.82
2023-05-15T19:18:40.234Z,4.95
2023-05-15T19:21:27.445Z,4.85
2023-05-15T19:24:14.978Z,5.47
2023-05-15T19:27:02.331Z,5.25
2023-05-15T19:29:50.980Z,5.85
2023-05-15T19:32:38.428Z,5.32
2023-05-15T19:35:25.639Z,5.20
2023-05-15T19:38:13.082Z,5.10
2023-05-15T19:41:01.104Z,5.07
2023-05-15T19:43:51.021Z,5.47
2023-05-15T19:46:39.974Z,5.15
2023-05-15T19:49:27.217Z,5.80
2023-05-15T19:52:14.519Z,5.30
2023-05-15T19:55:01.640Z,4.95
2023-05-15T19:57:48.680Z,5.53
2023-05-15T20:00:35.563Z,5.18
2023-05-15T20:03:24.201Z,5.97
2023-05-15T20:06:13.843Z,5.05
2023-05-15T20:09:01.140Z,5.72
2023-05-15T20:11:48.042Z,5.60
2023-05-15T20:14:35.354Z,6.10
2023-05-15T20:17:22.562Z,5.93
2023-05-15T20:20:12.529Z,5.57
2023-05-15T20:22:59.857Z,5.22
2023-05-15T20:25:47.429Z,5.25
2023-05-15T20:28:34.677Z,5.25
2023-05-15T20:31:21.955Z,5.90
2023-05-15T20:34:09.186Z,5.15
2023-05-15T20:36:58.102Z,4.82
2023-05-15T20:39:45.000Z,5.10
2023-05-15T20:42:32.533Z,5.40
2023-05-15T20:45:21.122Z,5.05
2023-05-15T20:48:08.926Z,4.97
2023-05-15T20:50:57.168Z,4.85
2023-05-15T20:53:45.560Z,5.25
2023-05-15T20:56:32.650Z,5.10
2023-05-15T20:59:20.092Z,5.35
2023-05-15T21:02:08.123Z,5.05
2023-05-15T21:04:55.187Z,5.28
2023-05-15T21:07:42.613Z,5.05
2023-05-15T21:10:31.038Z,5.60
2023-05-15T21:13:18.326Z,4.88
2023-05-15T21:16:05.787Z,4.47
2023-05-15T21:18:53.235Z,5.30
2023-05-15T21:21:40.348Z,5.10
2023-05-15T21:24:27.477Z,4.75
2023-05-15T21:27:15.899Z,6.47
2023-05-15T21:30:04.051Z,4.95
2023-05-15T21:32:51.166Z,4.80
2023-05-15T21:35:38.362Z,4.80
2023-05-15T21:38:25.509Z,5.00
2023-05-15T21:41:12.860Z,4.65
2023-05-15T21:44:01.326Z,4.60
2023-05-15T21:46:48.730Z,4.40
2023-05-15T21:49:36.056Z,4.53
2023-05-15T21:52:23.318Z,4.43
2023-05-15T21:55:11.035Z,4.60
2023-05-15T21:57:58.364Z,4.25
2023-05-15T22:00:47.203Z,4.55
2023-05-15T22:03:34.330Z,4.20
2023-05-15T22:06:21.576Z,4.40
2023-05-15T22:09:10.299Z,4.97
2023-05-15T22:11:57.349Z,4.85
2023-05-15T22:14:57.448Z,4.53
2023-05-15T22:17:48.200Z,4.50
2023-05-15T22:20:36.232Z,4.95
2023-05-15T22:23:23.375Z,4.07
2023-05-15T22:26:10.326Z,4.03
2023-05-15T22:28:57.247Z,4.80
2023-05-15T22:31:44.224Z,4.85
2023-05-15T22:34:33.028Z,4.93
2023-05-15T22:37:20.236Z,4.90
2023-05-15T22:40:08.697Z,4.68
2023-05-15T22:42:55.851Z,4.80
2023-05-15T22:45:42.832Z,4.65
2023-05-15T22:48:29.843Z,4.60
2023-05-15T22:51:18.526Z,4.85
2023-05-15T22:54:05.561Z,4.75
2023-05-15T22:56:53.839Z,6.32
2023-05-15T22:59:41.302Z,5.07
2023-05-15T23:02:28.648Z,5.38
2023-05-15T23:05:15.924Z,4.85
2023-05-15T23:08:04.513Z,4.80
2023-05-15T23:10:53.362Z,4.38
2023-05-15T23:13:40.788Z,4.47
2023-05-15T23:16:27.846Z,4.45
2023-05-15T23:19:15.572Z,5.10
2023-05-15T23:22:03.598Z,4.60
2023-05-15T23:24:52.356Z,4.13
2023-05-15T23:27:39.248Z,4.47
2023-05-15T23:30:26.740Z,4.97
2023-05-15T23:33:14.123Z,4.50
2023-05-15T23:36:02.213Z,4.40
2023-05-15T23:38:49.411Z,4.68
2023-05-15T23:41:37.876Z,4.75
2023-05-15T23:44:25.138Z,4.43
2023-05-15T23:47:11.976Z,4.93
2023-05-15T23:49:59.168Z,5.43
2023-05-15T23:52:46.378Z,4.68
2023-05-15T23:55:33.853Z,4.97
2023-05-15T23:58:23.645Z,4.47
